LSGC Airport Information

Runway Information
Runway 06 Length 3707 ft width 89 ft
Elevation 3368 ft Threshold 230 ft Heading 54
Runway 24 Length 3707 ft Width 89 ft
Elevation 3343 ft Threshold 328 ft Heading 234
Airport Frequencies
Type TWR Name TWR Frequency 118.125 MHZ
Airport Navaids
Type NDB Name Les Eplatures Frequency 403 KHZ
Airport Weather Information & NOTAM
ADDS - METARS form results

(1926 UTC 22 September 2018)
Data provider http://aviationweather.gov/metar/data/
 
METAR text: LSGC 221920Z AUTO 22004KT CAVOK 13/07 Q1023
Conditions at: LSGC (LES EPLATURES , CH) observed 1920 UTC 22 September 2018
Temperature: 13.0°C (55°F)
Dewpoint: 7.0°C (45°F) [RH = 67%]
Pressure (altimeter): 30.21 inches Hg (1023.0 mb)
Winds: from the SW (220 degrees) at 5 MPH (4 knots; 2.1 m/s)
Visibility: 6 or more miles (10+ km)
Ceiling: ceiling and visibility are OK
Clouds: unknown
Weather: no significant weather observed at this time

METAR text: LSGC 221850Z AUTO 23004KT 190V260 CAVOK 13/07 Q1023
Conditions at: LSGC (LES EPLATURES , CH) observed 1850 UTC 22 September 2018
Temperature: 13.0°C (55°F)
Dewpoint: 7.0°C (45°F) [RH = 67%]
Pressure (altimeter): 30.21 inches Hg (1023.0 mb)
Winds: from the SW (230 degrees) at 5 MPH (4 knots; 2.1 m/s)
Visibility: 6 or more miles (10+ km)
Ceiling: ceiling and visibility are OK
Clouds: unknown
Weather: no significant weather observed at this time

Forecast for: LSGC (LES EPLATURES , CH)
Text: TAF LSGC 221425Z 2215/2224 24008KT CAVOK
Forecast period: 1500 to 1900 UTC 22 September 2018
Forecast type: FROM: standard forecast or significant change
Winds: from the WSW (240 degrees) at 9 MPH (8 knots; 4.1 m/s)
Visibility: 6 or more miles 10+ km)
Ceiling: unknown
Clouds: missing
Weather: NSW  (no significant weather)
Text: BECMG 2219/2223 9999 FEW040 BKN060
Forecast period: 1900 UTC 22 September 2018 to 0000 UTC 23 September 2018
Forecast type: BECOMING: Conditions expected to become as follows by 2300 UTC 22 September 2018
Winds: from the WSW (240 degrees) at 9 MPH (8 knots; 4.1 m/s)
Visibility: 6 or more miles 10+ km)
Ceiling: 6000 feet AGL
Clouds: few clouds at 4000 feet AGL
broken clouds at 6000 feet AGL
Weather: NSW  (no significant weather)